createdAt,value
2024-02-24T00:00:14.065Z,93623.16
2024-02-24T00:01:18.364Z,93621.03
2024-02-24T00:02:20.063Z,93619.03
2024-02-24T00:03:22.919Z,93615.97
2024-02-24T00:04:27.281Z,93613.72
2024-02-24T00:05:29.177Z,93611.56
2024-02-24T00:06:30.869Z,93614.38
2024-02-24T00:07:32.770Z,93616.78
2024-02-24T00:08:36.861Z,93610.97
2024-02-24T00:09:38.820Z,93604.63
2024-02-24T00:10:43.747Z,93603.31
2024-02-24T00:11:45.746Z,93595.25
2024-02-24T00:12:50.139Z,93595.25
2024-02-24T00:13:54.888Z,93598.88
2024-02-24T00:14:56.555Z,93607.72
2024-02-24T00:15:58.169Z,93611.69
2024-02-24T00:16:59.981Z,93601.38
2024-02-24T00:18:01.634Z,93609.53
2024-02-24T00:19:03.442Z,93607.84
2024-02-24T00:20:09.354Z,93615.97
2024-02-24T00:21:11.102Z,93619.16
2024-02-24T00:22:14.739Z,93623.94
2024-02-24T00:23:17.428Z,93623.47
2024-02-24T00:24:19.217Z,93624.69
2024-02-24T00:25:20.935Z,93626.75
2024-02-24T00:26:25.067Z,93614.19
2024-02-24T00:27:26.772Z,93629.59
2024-02-24T00:28:28.446Z,93624.84
2024-02-24T00:29:30.264Z,93621.66
2024-02-24T00:30:31.941Z,93622.69
2024-02-24T00:31:33.586Z,93623.91
2024-02-24T00:32:35.303Z,93620.53
2024-02-24T00:33:37.294Z,93630.59
2024-02-24T00:34:39.146Z,93621.56
2024-02-24T00:35:41.537Z,93627.53
2024-02-24T00:36:43.231Z,93627.34
2024-02-24T00:37:46.929Z,93622.13
2024-02-24T00:38:50.810Z,93618.59
2024-02-24T00:39:53.065Z,93619.63
2024-02-24T00:40:56.985Z,93628.56
2024-02-24T00:41:58.858Z,93620.19
2024-02-24T00:43:00.821Z,93621.56
2024-02-24T00:44:02.606Z,93614.06
2024-02-24T00:45:04.894Z,93613.19
2024-02-24T00:46:08.359Z,93614.75
2024-02-24T00:47:10.192Z,93619.97
2024-02-24T00:48:12.018Z,93625.06
2024-02-24T00:49:16.008Z,93621.31
2024-02-24T00:50:17.717Z,93624.38
2024-02-24T00:51:19.366Z,93628.44
2024-02-24T00:52:21.109Z,93632.53
2024-02-24T00:53:23.091Z,93629.56
2024-02-24T00:54:24.840Z,93624.81
2024-02-24T00:55:26.520Z,93630.03
2024-02-24T00:56:28.165Z,93634.56
2024-02-24T00:57:30.157Z,93624.59
2024-02-24T00:58:31.775Z,93622.69
2024-02-24T00:59:38.066Z,93623.00
2024-02-24T01:00:39.902Z,93621.78
2024-02-24T01:01:41.507Z,93613.63
2024-02-24T01:02:43.284Z,93612.13
2024-02-24T01:03:45.074Z,93616.44
2024-02-24T01:04:46.867Z,93616.31
2024-02-24T01:05:48.612Z,93612.59
2024-02-24T01:06:52.034Z,93615.88
2024-02-24T01:07:59.665Z,93624.00
2024-02-24T01:09:01.349Z,93625.38
2024-02-24T01:10:03.373Z,93611.09
2024-02-24T01:11:06.754Z,93622.31
2024-02-24T01:12:08.544Z,93619.03
2024-02-24T01:13:10.575Z,93621.38
2024-02-24T01:14:12.408Z,93626.38
2024-02-24T01:15:14.153Z,93631.81
2024-02-24T01:16:17.464Z,93638.03
2024-02-24T01:17:20.041Z,93632.97
2024-02-24T01:18:24.566Z,93641.34
2024-02-24T01:19:26.644Z,93638.28
2024-02-24T01:20:30.849Z,93639.41
2024-02-24T01:21:32.661Z,93644.16
2024-02-24T01:22:34.394Z,93637.47
2024-02-24T01:23:36.156Z,93650.03
2024-02-24T01:24:37.821Z,93639.63
2024-02-24T01:25:39.821Z,93644.38
2024-02-24T01:26:41.981Z,93649.56
2024-02-24T01:27:43.739Z,93640.50
2024-02-24T01:28:49.504Z,93639.47
2024-02-24T01:29:52.213Z,93643.34
2024-02-24T01:30:53.862Z,93643.56
2024-02-24T01:31:55.546Z,93642.56
2024-02-24T01:32:57.496Z,93633.84
2024-02-24T01:33:59.494Z,93640.72
2024-02-24T01:35:02.310Z,93646.25
2024-02-24T01:36:04.367Z,93634.59
2024-02-24T01:37:06.035Z,93639.59
2024-02-24T01:38:07.993Z,93635.41
2024-02-24T01:39:10.239Z,93630.88
2024-02-24T01:40:12.198Z,93625.66
2024-02-24T01:41:14.172Z,93630.97
2024-02-24T01:42:15.839Z,93624.94
2024-02-24T01:43:28.034Z,93629.84
2024-02-24T01:44:32.547Z,93633.56
2024-02-24T01:45:34.228Z,93634.69
2024-02-24T01:46:38.109Z,93641.84
2024-02-24T01:47:42.412Z,93645.56
2024-02-24T01:48:44.530Z,93647.94
2024-02-24T01:49:47.513Z,93644.38
2024-02-24T01:50:50.847Z,93652.56
2024-02-24T01:51:56.805Z,93649.69
2024-02-24T01:52:59.491Z,93646.06
2024-02-24T01:54:04.356Z,93655.59
2024-02-24T01:55:06.857Z,93655.59
2024-02-24T01:56:11.106Z,93658.75
2024-02-24T01:57:13.626Z,93656.72
2024-02-24T01:58:18.482Z,93665.09
2024-02-24T01:59:20.417Z,93660.91
2024-02-24T02:12:44.543Z,93660.75
2024-02-24T02:13:46.851Z,93656.09
2024-02-24T02:14:51.852Z,93651.50
2024-02-24T02:15:57.946Z,93659.25
2024-02-24T02:16:59.768Z,93659.13
2024-02-24T02:18:01.652Z,93654.75
2024-02-24T02:19:05.588Z,93653.56
2024-02-24T02:20:08.721Z,93655.97
2024-02-24T02:21:12.242Z,93652.78
2024-02-24T02:22:19.240Z,93649.06
2024-02-24T02:23:21.548Z,93651.13
2024-02-24T02:24:27.237Z,93657.22
2024-02-24T02:25:29.056Z,93644.72
2024-02-24T02:26:30.825Z,93650.75
2024-02-24T02:27:33.650Z,93656.66
2024-02-24T02:28:35.495Z,93651.84
2024-02-24T02:29:37.246Z,93651.94
2024-02-24T02:30:38.913Z,93658.00
2024-02-24T02:31:40.576Z,93655.50
2024-02-24T02:32:42.510Z,93650.09
2024-02-24T02:33:44.537Z,93656.44
2024-02-24T02:34:46.290Z,93654.38
2024-02-24T02:35:48.058Z,93646.88
2024-02-24T02:36:49.750Z,93653.09
2024-02-24T02:37:51.310Z,93646.88
2024-02-24T02:38:55.087Z,93651.38
2024-02-24T02:39:56.741Z,93648.56
2024-02-24T02:41:02.917Z,93650.16
2024-02-24T02:42:04.878Z,93648.69
2024-02-24T02:43:07.063Z,93648.78
2024-02-24T02:44:09.803Z,93643.25
2024-02-24T02:45:11.573Z,93641.31
2024-02-24T02:46:17.998Z,93636.09
2024-02-24T02:47:23.734Z,93637.69
2024-02-24T02:48:26.343Z,93645.97
2024-02-24T02:49:28.405Z,93646.69
2024-02-24T02:50:30.179Z,93658.34
2024-02-24T02:51:31.960Z,93653.94
2024-02-24T02:52:33.489Z,93667.91
2024-02-24T02:53:37.358Z,93663.38
2024-02-24T02:54:39.430Z,93668.59
2024-02-24T02:55:41.354Z,93667.91
2024-02-24T02:56:45.340Z,93672.88
2024-02-24T02:57:47.221Z,93671.63
2024-02-24T02:58:53.507Z,93679.22
2024-02-24T02:59:55.276Z,93686.00
2024-02-24T03:00:57.138Z,93685.53
2024-02-24T03:02:00.257Z,93676.69
2024-02-24T03:03:09.196Z,93687.13
2024-02-24T03:04:10.970Z,93689.53
2024-02-24T03:05:12.726Z,93696.44
2024-02-24T03:06:18.905Z,93686.19
2024-02-24T03:07:23.210Z,93690.41
2024-02-24T03:08:33.980Z,93690.94
2024-02-24T03:09:38.271Z,93696.63
2024-02-24T03:10:42.552Z,93694.59
2024-02-24T03:11:47.060Z,93702.41
2024-02-24T03:12:51.265Z,93701.50
2024-02-24T03:13:52.851Z,93690.94
2024-02-24T03:14:54.541Z,93682.53
2024-02-24T03:15:56.313Z,93681.53
2024-02-24T03:16:58.275Z,93681.44
2024-02-24T03:17:59.987Z,93678.03
2024-02-24T03:19:02.132Z,93680.06
2024-02-24T03:20:05.319Z,93672.59
2024-02-24T03:21:07.136Z,93674.72
2024-02-24T03:22:08.745Z,93683.59
2024-02-24T03:23:15.058Z,93675.31
2024-02-24T03:24:16.743Z,93683.56
2024-02-24T03:25:18.329Z,93677.91
2024-02-24T03:26:22.739Z,93674.28
2024-02-24T03:27:25.173Z,93672.25
2024-02-24T03:28:27.483Z,93675.78
2024-02-24T03:29:29.333Z,93672.91
2024-02-24T03:30:31.029Z,93670.31
2024-02-24T03:31:34.992Z,93675.47
2024-02-24T03:32:39.810Z,93679.19
2024-02-24T03:33:41.681Z,93684.78
2024-02-24T03:34:45.582Z,93688.84
2024-02-24T03:35:47.238Z,93701.47
2024-02-24T03:36:49.121Z,93700.06
2024-02-24T03:37:52.067Z,93708.53
2024-02-24T03:38:58.356Z,93710.94
2024-02-24T03:40:00.403Z,93711.28
2024-02-24T03:41:03.047Z,93704.47
2024-02-24T03:42:07.433Z,93709.69
2024-02-24T03:43:09.141Z,93714.19
2024-02-24T03:44:10.721Z,93707.66
2024-02-24T03:45:15.125Z,93705.47
2024-02-24T03:46:17.173Z,93710.94
2024-02-24T03:47:18.963Z,93715.13
2024-02-24T03:48:20.985Z,93712.97
2024-02-24T03:49:22.930Z,93721.38
2024-02-24T03:50:27.000Z,93722.56
2024-02-24T03:51:29.346Z,93716.88
2024-02-24T03:52:31.205Z,93716.41
2024-02-24T03:53:33.082Z,93716.97
2024-02-24T03:54:34.841Z,93714.69
2024-02-24T03:55:36.471Z,93721.84
2024-02-24T03:56:38.140Z,93713.72
2024-02-24T03:57:39.946Z,93723.22
2024-02-24T03:58:42.530Z,93725.66
2024-02-24T03:59:44.098Z,93728.94
2024-02-24T04:00:51.688Z,93729.38
2024-02-24T04:01:53.502Z,93727.97
2024-02-24T04:02:55.181Z,93733.34
2024-02-24T04:03:59.351Z,93734.78
2024-02-24T04:05:02.126Z,93737.50
2024-02-24T04:06:04.778Z,93728.44
2024-02-24T04:07:06.756Z,93728.19
2024-02-24T04:08:08.418Z,93733.66
2024-02-24T04:09:10.173Z,93727.66
2024-02-24T04:10:12.306Z,93725.28
2024-02-24T04:11:14.176Z,93727.22
2024-02-24T04:12:15.978Z,93722.59
2024-02-24T04:13:21.489Z,93731.72
2024-02-24T04:14:24.072Z,93727.78
2024-02-24T04:15:25.816Z,93738.59
2024-02-24T04:16:27.463Z,93733.84
2024-02-24T04:17:31.454Z,93737.56
2024-02-24T04:18:33.976Z,93745.13
2024-02-24T04:19:35.874Z,93740.88
2024-02-24T04:20:37.475Z,93735.34
2024-02-24T04:21:41.371Z,93740.84
2024-02-24T04:22:43.438Z,93738.41
2024-02-24T04:23:45.513Z,93735.69
2024-02-24T04:24:47.357Z,93743.84
2024-02-24T04:25:49.298Z,93734.00
2024-02-24T04:26:51.194Z,93735.91
2024-02-24T04:27:52.848Z,93735.72
2024-02-24T04:28:54.508Z,93735.19
2024-02-24T04:29:56.280Z,93735.25
2024-02-24T04:30:57.960Z,93741.78
2024-02-24T04:31:59.673Z,93743.16
2024-02-24T04:33:04.481Z,93747.66
2024-02-24T04:34:06.501Z,93747.88
2024-02-24T04:35:11.357Z,93744.25
2024-02-24T04:36:13.245Z,93740.84
2024-02-24T04:37:15.938Z,93739.34
2024-02-24T04:38:19.793Z,93755.34
2024-02-24T04:39:22.209Z,93757.13
2024-02-24T04:40:25.900Z,93767.47
2024-02-24T04:41:27.566Z,93761.66
2024-02-24T04:42:29.270Z,93768.56
2024-02-24T04:43:32.336Z,93772.00
2024-02-24T04:44:35.295Z,93773.53
2024-02-24T04:45:41.555Z,93779.09
2024-02-24T04:46:43.300Z,93776.97
2024-02-24T04:47:45.453Z,93774.09
2024-02-24T04:48:49.906Z,93780.44
2024-02-24T04:49:52.626Z,93785.53
2024-02-24T04:51:02.230Z,93790.75
2024-02-24T04:52:05.848Z,93786.88
2024-02-24T04:53:07.813Z,93783.00
2024-02-24T04:54:11.778Z,93795.25
2024-02-24T04:55:13.660Z,93799.78
2024-02-24T04:56:17.873Z,93799.53
2024-02-24T04:57:21.968Z,93802.97
2024-02-24T04:58:25.766Z,93796.22
2024-02-24T04:59:28.524Z,93802.50
2024-02-24T05:02:09.175Z,93804.59
2024-02-24T05:03:10.940Z,93815.59
2024-02-24T05:04:12.632Z,93811.75
2024-02-24T05:05:14.484Z,93816.50
2024-02-24T05:06:16.391Z,93819.53
2024-02-24T05:07:20.503Z,93816.63
2024-02-24T05:08:22.228Z,93812.63
2024-02-24T05:09:24.232Z,93816.06
2024-02-24T05:10:27.193Z,93817.72
2024-02-24T05:11:29.042Z,93816.94
2024-02-24T05:12:30.818Z,93812.50
2024-02-24T05:13:32.813Z,93814.34
2024-02-24T05:14:34.535Z,93811.41
2024-02-24T05:15:36.604Z,93814.22
2024-02-24T05:16:41.515Z,93818.19
2024-02-24T05:17:44.060Z,93810.63
2024-02-24T05:18:48.476Z,93800.06
2024-02-24T05:19:50.282Z,93798.50
2024-02-24T05:20:52.114Z,93798.25
2024-02-24T05:21:56.054Z,93793.84
2024-02-24T05:22:58.086Z,93788.72
2024-02-24T05:24:02.294Z,93789.75
2024-02-24T05:25:04.478Z,93786.03
2024-02-24T05:26:06.106Z,93772.59
2024-02-24T05:27:07.806Z,93786.75
2024-02-24T05:28:10.275Z,93790.38
2024-02-24T05:29:12.255Z,93782.97
2024-02-24T05:30:14.440Z,93791.25
2024-02-24T05:31:16.972Z,93799.16
2024-02-24T05:32:18.694Z,93803.00
2024-02-24T05:33:20.800Z,93799.47
2024-02-24T05:34:22.868Z,93803.78
2024-02-24T05:35:24.770Z,93806.19
2024-02-24T05:36:26.725Z,93803.00
2024-02-24T05:37:28.680Z,93801.28
2024-02-24T05:38:30.307Z,93806.06
2024-02-24T05:39:31.949Z,93818.50
2024-02-24T05:40:36.069Z,93813.88
2024-02-24T05:41:37.952Z,93813.75
2024-02-24T05:42:39.790Z,93820.91
2024-02-24T05:43:41.934Z,93819.88
2024-02-24T05:44:43.666Z,93820.09
2024-02-24T05:45:45.233Z,93812.75
2024-02-24T05:46:47.308Z,93825.09
2024-02-24T05:47:51.415Z,93822.06
2024-02-24T05:48:53.309Z,93830.31
2024-02-24T05:49:55.203Z,93833.16
2024-02-24T05:50:57.440Z,93828.44
2024-02-24T05:51:59.138Z,93826.94
2024-02-24T05:53:03.487Z,93823.00
2024-02-24T05:54:05.322Z,93827.41
2024-02-24T05:55:08.889Z,93829.00
2024-02-24T05:56:10.668Z,93825.47
2024-02-24T05:57:12.287Z,93828.69
2024-02-24T05:58:13.953Z,93838.56
2024-02-24T05:59:18.533Z,93838.34
2024-02-24T06:00:20.349Z,93849.91
2024-02-24T06:01:21.971Z,93839.94
2024-02-24T06:02:23.538Z,93854.78
2024-02-24T06:03:27.426Z,93855.22
2024-02-24T06:04:31.240Z,93849.25
2024-02-24T06:05:33.928Z,93852.88
2024-02-24T06:06:35.780Z,93857.63
2024-02-24T06:07:40.077Z,93855.59
2024-02-24T06:08:45.067Z,93859.66
2024-02-24T06:09:49.068Z,93863.88
2024-02-24T06:10:50.839Z,93858.53
2024-02-24T06:11:52.846Z,93865.56
2024-02-24T06:12:57.036Z,93868.41
2024-02-24T06:13:58.697Z,93871.00
2024-02-24T06:15:00.366Z,93873.81
2024-02-24T06:16:02.418Z,93875.53
2024-02-24T06:17:04.701Z,93871.91
2024-02-24T06:18:06.772Z,93872.69
2024-02-24T06:19:08.521Z,93879.38
2024-02-24T06:20:13.179Z,93877.22
2024-02-24T06:21:15.422Z,93882.91
2024-02-24T06:22:17.332Z,93879.72
2024-02-24T06:23:19.204Z,93874.72
2024-02-24T06:24:21.177Z,93874.72
2024-02-24T06:25:23.688Z,93878.59
2024-02-24T06:26:27.919Z,93879.38
2024-02-24T06:27:32.266Z,93886.19
2024-02-24T06:28:34.009Z,93885.59
2024-02-24T06:29:35.549Z,93888.88
2024-02-24T06:30:38.740Z,93885.16
2024-02-24T06:31:40.365Z,93885.94
2024-02-24T06:32:42.133Z,93890.00
2024-02-24T06:33:44.018Z,93890.00
2024-02-24T06:34:46.673Z,93890.69
2024-02-24T06:35:50.878Z,93887.75
2024-02-24T06:36:52.619Z,93894.19
2024-02-24T06:37:54.417Z,93895.88
2024-02-24T06:38:58.607Z,93902.56
2024-02-24T06:40:03.575Z,93895.28
2024-02-24T06:41:05.339Z,93899.53
2024-02-24T06:42:07.112Z,93909.38
2024-02-24T06:43:08.871Z,93910.97
2024-02-24T06:44:10.923Z,93908.81
2024-02-24T06:45:12.684Z,93909.84
2024-02-24T06:46:15.638Z,93912.94
2024-02-24T06:47:28.383Z,93908.56
2024-02-24T06:48:34.146Z,93911.88
2024-02-24T06:49:36.883Z,93910.28
2024-02-24T06:50:38.691Z,93911.41
2024-02-24T06:51:41.241Z,93922.06
2024-02-24T06:52:42.916Z,93923.44
2024-02-24T06:53:44.703Z,93929.44
2024-02-24T06:54:46.352Z,93924.00
2024-02-24T06:55:50.196Z,93918.31
2024-02-24T06:56:58.485Z,93924.00
2024-02-24T06:58:02.022Z,93936.38
2024-02-24T06:59:07.814Z,93932.56
2024-02-24T07:00:10.610Z,93932.09
2024-02-24T07:01:23.754Z,93940.69
2024-02-24T07:02:26.080Z,93944.44
2024-02-24T07:03:28.107Z,93941.84
2024-02-24T07:04:31.902Z,93941.28
2024-02-24T07:05:33.705Z,93944.13
2024-02-24T07:06:38.691Z,93944.91
2024-02-24T07:07:40.567Z,93948.75
2024-02-24T07:08:42.484Z,93949.31
2024-02-24T07:09:44.147Z,93958.16
2024-02-24T07:10:45.952Z,93967.31
2024-02-24T07:11:47.869Z,93964.06
2024-02-24T07:12:50.257Z,93961.47
2024-02-24T07:13:52.079Z,93963.63
2024-02-24T07:14:53.884Z,93960.00
2024-02-24T07:15:55.491Z,93968.13
2024-02-24T07:16:57.223Z,93965.22
2024-02-24T07:17:59.095Z,93964.78
2024-02-24T07:19:00.958Z,93960.72
2024-02-24T07:20:02.894Z,93955.81
2024-02-24T07:21:05.357Z,93959.00
2024-02-24T07:22:07.120Z,93964.59
2024-02-24T07:23:08.859Z,93956.06
2024-02-24T07:24:10.919Z,93959.38
2024-02-24T07:25:14.720Z,93965.72
2024-02-24T07:26:16.293Z,93956.19
2024-02-24T07:27:18.103Z,93956.69
2024-02-24T07:28:19.736Z,93948.28
2024-02-24T07:29:21.421Z,93954.84
2024-02-24T07:30:23.022Z,93960.50
2024-02-24T07:31:24.711Z,93960.88
2024-02-24T07:32:26.333Z,93958.56
2024-02-24T07:33:28.533Z,93960.88
2024-02-24T07:34:34.529Z,93959.97
2024-02-24T07:35:36.274Z,93962.13
2024-02-24T07:36:38.121Z,93964.28
2024-02-24T07:37:39.669Z,93960.19
2024-02-24T07:38:43.858Z,93957.81
2024-02-24T07:39:45.920Z,93964.41
2024-02-24T07:40:47.624Z,93964.75
2024-02-24T07:41:49.302Z,93971.69
2024-02-24T07:42:55.614Z,93971.81
2024-02-24T07:43:57.403Z,93963.75
2024-02-24T07:44:59.403Z,93968.53
2024-02-24T07:46:01.869Z,93965.59
2024-02-24T07:47:04.630Z,93961.50
2024-02-24T07:48:08.833Z,93963.66
2024-02-24T07:49:13.177Z,93961.16
2024-02-24T07:50:17.337Z,93966.16
2024-02-24T07:51:21.641Z,93966.72
2024-02-24T07:52:23.389Z,93972.50
2024-02-24T07:53:24.960Z,93973.53
2024-02-24T07:54:28.907Z,93981.00
2024-02-24T07:55:32.110Z,93978.97
2024-02-24T07:56:34.008Z,93980.31
2024-02-24T07:57:35.904Z,93971.03
2024-02-24T07:58:37.698Z,93969.78
2024-02-24T07:59:41.715Z,93979.19
2024-02-24T08:02:14.227Z,93975.41
2024-02-24T08:03:18.468Z,93976.75
2024-02-24T08:04:21.910Z,93975.28
2024-02-24T08:05:23.880Z,93978.97
2024-02-24T08:06:25.756Z,93986.78
2024-02-24T08:07:28.734Z,93971.81
2024-02-24T08:08:31.335Z,93971.47
2024-02-24T08:09:38.437Z,93975.56
2024-02-24T08:10:40.104Z,93972.31
2024-02-24T08:11:42.150Z,93969.31
2024-02-24T08:12:44.288Z,93974.34
2024-02-24T08:13:47.275Z,93977.38
2024-02-24T08:14:49.298Z,93976.47
2024-02-24T08:15:51.275Z,93979.22
2024-02-24T08:16:55.064Z,93978.00
2024-02-24T08:17:56.751Z,93983.75
2024-02-24T08:18:58.934Z,93985.56
2024-02-24T08:20:00.815Z,93990.34
2024-02-24T08:21:08.397Z,93984.22
2024-02-24T08:22:10.342Z,93981.38
2024-02-24T08:23:11.962Z,93980.34
2024-02-24T08:24:17.433Z,93990.59
2024-02-24T08:25:22.285Z,93983.44
2024-02-24T08:26:24.025Z,93987.63
2024-02-24T08:27:25.600Z,93987.41
2024-02-24T08:28:29.819Z,93991.25
2024-02-24T08:29:34.172Z,93979.09
2024-02-24T08:30:36.557Z,93988.59
2024-02-24T08:31:39.701Z,93991.78
2024-02-24T08:32:41.532Z,93985.88
2024-02-24T08:33:43.534Z,93983.06
2024-02-24T08:34:48.003Z,93983.50
2024-02-24T08:35:51.033Z,93998.03
2024-02-24T08:36:53.224Z,93983.94
2024-02-24T08:37:55.108Z,93989.81
2024-02-24T08:38:59.548Z,93984.41
2024-02-24T08:40:01.303Z,93990.63
2024-02-24T08:41:03.057Z,93988.13
2024-02-24T08:42:06.024Z,93997.75
2024-02-24T08:43:10.300Z,93995.50
2024-02-24T08:44:14.723Z,93996.38
2024-02-24T08:45:16.625Z,93996.94
2024-02-24T08:46:20.630Z,93987.06
2024-02-24T08:47:22.393Z,93992.59
2024-02-24T08:48:24.839Z,94006.81
2024-02-24T08:49:26.604Z,94001.81
2024-02-24T08:50:30.904Z,93995.88
2024-02-24T08:51:32.705Z,93996.22
2024-02-24T08:52:46.142Z,94001.53
2024-02-24T08:53:58.820Z,93997.16
2024-02-24T08:55:00.658Z,93996.16
2024-02-24T08:56:06.229Z,93992.31
2024-02-24T08:57:08.385Z,93998.06
2024-02-24T08:58:10.134Z,94008.16
2024-02-24T08:59:18.998Z,93999.84
2024-02-24T09:00:20.866Z,94001.50
2024-02-24T09:01:22.652Z,94003.47
2024-02-24T09:02:24.654Z,94012.06
2024-02-24T09:03:26.578Z,94007.47
2024-02-24T09:04:28.302Z,94006.00
2024-02-24T09:05:29.996Z,94013.19
2024-02-24T09:06:32.805Z,94004.16
2024-02-24T09:07:39.451Z,94006.63
2024-02-24T09:08:41.374Z,94011.41
2024-02-24T09:09:43.208Z,94016.38
2024-02-24T09:10:44.891Z,94011.53
2024-02-24T09:11:47.683Z,94009.09
2024-02-24T09:12:49.528Z,94004.97
2024-02-24T09:13:53.722Z,94005.28
2024-02-24T09:14:55.601Z,94006.88
2024-02-24T09:15:57.482Z,94006.31
2024-02-24T09:16:59.142Z,94011.16
2024-02-24T09:18:00.932Z,94016.53
2024-02-24T09:19:03.087Z,94013.22
2024-02-24T09:20:09.926Z,94014.88
2024-02-24T09:21:14.237Z,94017.03
2024-02-24T09:22:16.091Z,94009.50
2024-02-24T09:23:17.655Z,94013.91
2024-02-24T09:24:19.662Z,94013.84
2024-02-24T09:25:22.867Z,94018.69
2024-02-24T09:26:27.384Z,94010.38
2024-02-24T09:27:30.053Z,94018.03
2024-02-24T09:28:34.155Z,94007.84
2024-02-24T09:29:35.881Z,94015.78
2024-02-24T09:30:37.971Z,94015.63
2024-02-24T09:31:41.417Z,94016.25
2024-02-24T09:32:43.266Z,94017.38
2024-02-24T09:33:45.254Z,94018.94
2024-02-24T09:34:47.230Z,94018.47
2024-02-24T09:35:49.685Z,94016.50
2024-02-24T09:36:51.384Z,94021.47
2024-02-24T09:37:53.090Z,94024.19
2024-02-24T09:38:57.942Z,94021.25
2024-02-24T09:40:04.452Z,94013.94
2024-02-24T09:41:06.553Z,94024.44
2024-02-24T09:42:10.793Z,94020.38
2024-02-24T09:43:15.130Z,94015.06
2024-02-24T09:44:17.711Z,94015.41
2024-02-24T09:45:23.831Z,94010.50
2024-02-24T09:46:31.018Z,94016.84
2024-02-24T09:47:33.566Z,94016.91
2024-02-24T09:48:35.459Z,94017.53
2024-02-24T09:49:40.435Z,94026.50
2024-02-24T09:50:42.796Z,94022.34
2024-02-24T09:51:49.302Z,94020.81
2024-02-24T09:52:51.037Z,94026.94
2024-02-24T09:53:52.677Z,94021.25
2024-02-24T09:54:54.353Z,94023.00
2024-02-24T09:55:56.448Z,94027.59
2024-02-24T09:56:58.792Z,94027.53
2024-02-24T09:58:01.543Z,94028.47
2024-02-24T09:59:07.213Z,94026.41
2024-02-24T10:00:11.550Z,94028.75
2024-02-24T10:01:16.957Z,94030.41
2024-02-24T10:02:20.836Z,94031.25
2024-02-24T10:03:26.422Z,94034.78
2024-02-24T10:04:28.402Z,94037.69
2024-02-24T10:05:32.430Z,94035.56
2024-02-24T10:06:40.668Z,94035.94
2024-02-24T10:07:42.456Z,94032.63
2024-02-24T10:08:45.228Z,94030.47
2024-02-24T10:09:48.369Z,94034.13
2024-02-24T10:10:50.562Z,94041.31
2024-02-24T10:11:53.246Z,94034.25
2024-02-24T10:12:59.536Z,94028.31
2024-02-24T10:14:01.279Z,94033.66
2024-02-24T10:15:02.983Z,94026.00
2024-02-24T10:16:07.577Z,94031.31
2024-02-24T10:17:09.421Z,94031.28
2024-02-24T10:18:11.496Z,94027.94
2024-02-24T10:19:13.671Z,94036.44
2024-02-24T10:20:15.540Z,94032.81
2024-02-24T10:21:17.830Z,94027.84
2024-02-24T10:22:20.366Z,94031.53
2024-02-24T10:23:22.196Z,94032.59
2024-02-24T10:24:26.887Z,94035.03
2024-02-24T10:25:28.574Z,94033.16
2024-02-24T10:26:32.633Z,94041.19
2024-02-24T10:27:34.968Z,94039.91
2024-02-24T10:28:36.812Z,94039.38
2024-02-24T10:29:38.374Z,94040.16
2024-02-24T10:30:41.108Z,94035.22
2024-02-24T10:31:46.040Z,94040.28
2024-02-24T10:32:52.060Z,94037.91
2024-02-24T10:33:54.695Z,94031.41
2024-02-24T10:34:57.374Z,94036.47
2024-02-24T10:36:03.437Z,94042.28
2024-02-24T10:37:05.275Z,94044.69
2024-02-24T10:38:18.719Z,94040.22
2024-02-24T10:39:35.230Z,94044.19
2024-02-24T10:40:41.641Z,94047.34
2024-02-24T10:41:47.694Z,94044.44
2024-02-24T10:42:54.226Z,94044.97
2024-02-24T10:44:10.731Z,94042.06
2024-02-24T10:45:22.356Z,94043.91
2024-02-24T10:46:27.108Z,94042.84
2024-02-24T10:47:29.176Z,94043.44
2024-02-24T10:48:31.191Z,94050.81
2024-02-24T10:49:35.370Z,94039.22
2024-02-24T10:50:37.413Z,94045.78
2024-02-24T10:51:39.678Z,94040.53
2024-02-24T10:52:41.939Z,94041.34
2024-02-24T10:53:48.736Z,94037.66
2024-02-24T10:54:54.546Z,94046.09
2024-02-24T10:56:03.280Z,94042.94
2024-02-24T10:57:06.639Z,94043.69
2024-02-24T10:58:11.183Z,94046.34
2024-02-24T10:59:13.036Z,94039.25
2024-02-24T11:02:21.836Z,94041.19
2024-02-24T11:03:24.374Z,94034.84
2024-02-24T11:04:26.450Z,94035.38
2024-02-24T11:05:34.382Z,94035.94
2024-02-24T11:06:53.661Z,94031.72
2024-02-24T11:07:58.553Z,94039.13
2024-02-24T11:09:01.515Z,94031.78
2024-02-24T11:10:03.490Z,94030.72
2024-02-24T11:11:10.116Z,94026.53
2024-02-24T11:12:12.730Z,94029.97
2024-02-24T11:13:14.857Z,94029.97
2024-02-24T11:14:22.545Z,94036.06
2024-02-24T11:15:25.448Z,94032.38
2024-02-24T11:16:27.213Z,94032.63
2024-02-24T11:17:51.664Z,94034.97
2024-02-24T11:18:54.407Z,94033.13
2024-02-24T11:19:56.165Z,94037.13
2024-02-24T11:20:57.911Z,94032.31
2024-02-24T11:22:04.346Z,94040.50
2024-02-24T11:23:25.952Z,94039.47
2024-02-24T11:24:32.655Z,94037.66
2024-02-24T11:25:34.752Z,94040.81
2024-02-24T11:26:37.745Z,94036.59
2024-02-24T11:27:41.847Z,94038.72
2024-02-24T11:28:49.879Z,94043.19
2024-02-24T11:29:51.768Z,94032.41
2024-02-24T11:30:55.432Z,94036.59
2024-02-24T11:32:14.731Z,94037.66
2024-02-24T11:33:29.566Z,94035.56
2024-02-24T11:34:35.686Z,94035.84
2024-02-24T11:35:38.061Z,94033.44
2024-02-24T11:36:42.059Z,94027.13
2024-02-24T11:37:43.988Z,94025.03
2024-02-24T11:38:48.830Z,94027.66
2024-02-24T11:39:53.178Z,94026.88
2024-02-24T11:40:56.515Z,94022.66
2024-02-24T11:41:58.637Z,94022.38
2024-02-24T11:43:00.421Z,94017.91
2024-02-24T11:44:02.375Z,94025.53
2024-02-24T11:45:06.065Z,94024.75
2024-02-24T11:46:12.887Z,94026.84
2024-02-24T11:47:20.644Z,94028.69
2024-02-24T11:48:23.515Z,94027.06
2024-02-24T11:49:26.602Z,94025.19
2024-02-24T11:50:28.322Z,94032.28
2024-02-24T11:51:30.163Z,94028.28
2024-02-24T11:52:33.190Z,94028.47
2024-02-24T11:53:35.265Z,94035.84
2024-02-24T11:54:40.975Z,94031.63
2024-02-24T11:55:43.517Z,94034.25
2024-02-24T11:56:45.445Z,94031.31
2024-02-24T11:57:47.189Z,94029.94
2024-02-24T11:58:51.323Z,94033.66
2024-02-24T11:59:52.869Z,94023.72
2024-02-24T12:00:56.554Z,94035.22
2024-02-24T12:01:58.468Z,94028.88
2024-02-24T12:03:02.248Z,94028.69
2024-02-24T12:04:04.250Z,94026.25
2024-02-24T12:05:18.452Z,94028.69
2024-02-24T12:06:25.113Z,94036.28
2024-02-24T12:07:28.113Z,94037.09
2024-02-24T12:08:30.623Z,94030.75
2024-02-24T12:09:32.547Z,94033.09
2024-02-24T12:10:38.499Z,94034.72
2024-02-24T12:11:43.090Z,94032.84
2024-02-24T12:12:45.007Z,94034.16
2024-02-24T12:13:48.958Z,94036.81
2024-02-24T12:14:55.141Z,94048.16
2024-02-24T12:15:58.942Z,94040.00
2024-02-24T12:17:00.642Z,94038.13
2024-02-24T12:18:02.873Z,94043.72
2024-02-24T12:19:07.818Z,94042.63
2024-02-24T12:20:11.551Z,94038.94
2024-02-24T12:21:15.927Z,94044.50
2024-02-24T12:22:17.627Z,94035.25
2024-02-24T12:23:20.308Z,94039.84
2024-02-24T12:24:31.847Z,94035.28
2024-02-24T12:25:37.162Z,94043.19
2024-02-24T12:26:39.040Z,94038.16
2024-02-24T12:27:41.966Z,94036.81
2024-02-24T12:28:46.410Z,94033.41
2024-02-24T12:29:48.320Z,94037.34
2024-02-24T12:30:50.196Z,94028.88
2024-02-24T12:31:51.827Z,94035.25
2024-02-24T12:32:56.582Z,94037.59
2024-02-24T12:33:58.926Z,94036.03
2024-02-24T12:35:07.026Z,94039.44
2024-02-24T12:36:11.408Z,94035.78
2024-02-24T12:37:13.212Z,94038.94
2024-02-24T12:38:17.713Z,94035.25
2024-02-24T12:39:21.914Z,94035.22